createdAt,value
2022-09-25T00:00:36.565Z,8.88
2022-09-25T00:05:39.581Z,10.55
2022-09-25T00:10:51.273Z,8.35
2022-09-25T00:15:55.904Z,8.40
2022-09-25T00:21:01.628Z,9.82
2022-09-25T00:26:05.890Z,9.23
2022-09-25T00:31:08.686Z,9.88
2022-09-25T00:36:11.029Z,10.38
2022-09-25T00:41:12.873Z,10.50
2022-09-25T00:46:33.797Z,13.68
2022-09-25T00:51:44.323Z,12.18
2022-09-25T00:56:48.980Z,11.93
2022-09-25T01:01:51.085Z,18.15
2022-09-25T01:06:53.749Z,15.15
2022-09-25T01:11:55.385Z,18.02
2022-09-25T01:17:04.588Z,15.00
2022-09-25T01:22:06.172Z,18.93
2022-09-25T01:27:30.525Z,19.92
2022-09-25T01:32:42.048Z,21.85
2022-09-25T01:38:15.704Z,21.48
2022-09-25T01:43:31.090Z,20.00
2022-09-25T01:48:35.010Z,18.67
2022-09-25T01:53:47.760Z,18.73
2022-09-25T01:58:55.726Z,18.30
2022-09-25T02:04:03.472Z,20.00
2022-09-25T02:09:10.208Z,21.55
2022-09-25T02:14:22.942Z,20.20
2022-09-25T02:19:44.002Z,16.85
2022-09-25T02:25:00.699Z,20.92
2022-09-25T02:30:02.230Z,20.13
2022-09-25T02:35:04.526Z,19.70
2022-09-25T02:40:06.414Z,20.38
2022-09-25T02:45:32.908Z,16.60
2022-09-25T02:51:11.865Z,21.00
2022-09-25T02:56:32.022Z,19.30
2022-09-25T03:01:36.865Z,19.77
2022-09-25T03:06:39.741Z,19.90
2022-09-25T03:11:42.261Z,21.35
2022-09-25T03:16:50.089Z,23.92
2022-09-25T03:21:51.604Z,23.58
2022-09-25T03:26:53.991Z,20.65
2022-09-25T03:31:55.647Z,21.27
2022-09-25T03:36:57.135Z,21.58
2022-09-25T03:41:58.649Z,19.90
2022-09-25T03:47:00.176Z,17.02
2022-09-25T03:52:01.965Z,15.35
2022-09-25T03:57:03.658Z,16.98
2022-09-25T04:02:05.229Z,15.68
2022-09-25T04:07:06.858Z,17.00
2022-09-25T04:12:08.985Z,16.05
2022-09-25T04:17:12.914Z,17.25
2022-09-25T04:22:14.503Z,13.70
2022-09-25T04:27:19.118Z,14.75
2022-09-25T04:32:39.121Z,16.00
2022-09-25T04:42:43.705Z,12.38
2022-09-25T04:47:45.229Z,14.10
2022-09-25T04:52:47.461Z,13.32
2022-09-25T04:57:58.912Z,14.77
2022-09-25T05:03:03.122Z,14.73
2022-09-25T05:08:04.784Z,13.75
2022-09-25T05:13:06.842Z,15.18
2022-09-25T05:18:16.376Z,14.45
2022-09-25T05:23:18.287Z,16.02
2022-09-25T05:28:19.774Z,13.88
2022-09-25T05:33:21.314Z,15.63
2022-09-25T05:38:22.875Z,13.20
2022-09-25T05:43:25.454Z,12.93
2022-09-25T05:48:27.082Z,11.27
2022-09-25T05:53:30.273Z,12.48
2022-09-25T05:58:33.703Z,10.82
2022-09-25T06:03:36.098Z,12.18
2022-09-25T06:08:37.920Z,10.75
2022-09-25T06:13:39.486Z,16.52
2022-09-25T06:18:43.120Z,15.75
2022-09-25T06:23:48.657Z,12.82
2022-09-25T06:28:50.179Z,17.02
2022-09-25T06:33:52.547Z,15.20
2022-09-25T06:38:55.752Z,16.25
2022-09-25T06:43:57.262Z,17.38
2022-09-25T06:48:58.803Z,15.80
2022-09-25T06:54:00.342Z,16.55
2022-09-25T06:59:01.895Z,17.75
2022-09-25T07:04:04.049Z,15.32
2022-09-25T07:09:05.708Z,15.05
2022-09-25T07:14:09.432Z,15.88
2022-09-25T07:19:10.911Z,16.27
2022-09-25T07:24:12.540Z,16.52
2022-09-25T07:29:14.279Z,17.58
2022-09-25T07:34:16.363Z,17.20
2022-09-25T07:39:18.799Z,15.65
2022-09-25T07:44:29.425Z,16.63
2022-09-25T07:49:32.034Z,15.02
2022-09-25T07:54:36.580Z,18.25
2022-09-25T07:59:38.125Z,20.98
2022-09-25T08:04:39.729Z,25.23
2022-09-25T08:09:41.291Z,24.63
2022-09-25T08:14:42.837Z,18.52
2022-09-25T08:19:44.373Z,19.15
2022-09-25T08:24:45.931Z,18.73
2022-09-25T08:29:47.408Z,23.33
2022-09-25T08:34:49.482Z,21.33
2022-09-25T08:39:51.188Z,19.63
2022-09-25T08:45:22.314Z,18.90
2022-09-25T08:50:25.846Z,18.98
2022-09-25T08:55:47.784Z,16.55
2022-09-25T09:00:49.621Z,20.88
2022-09-25T09:05:58.453Z,16.65
2022-09-25T09:11:11.355Z,17.88
2022-09-25T09:16:31.935Z,17.33
2022-09-25T09:21:37.803Z,15.93
2022-09-25T09:27:04.235Z,18.08
2022-09-25T09:32:42.681Z,17.15
2022-09-25T09:38:02.057Z,16.63
2022-09-25T09:43:25.461Z,16.38
2022-09-25T09:48:29.934Z,17.67
2022-09-25T09:53:42.797Z,16.65
2022-09-25T09:58:55.619Z,14.75
2022-09-25T10:04:19.025Z,14.70
2022-09-25T10:09:25.913Z,13.73
2022-09-25T10:14:34.048Z,14.45
2022-09-25T10:19:51.534Z,12.65
2022-09-25T10:25:07.119Z,11.60
2022-09-25T10:30:11.681Z,13.77
2022-09-25T10:35:21.336Z,13.93
2022-09-25T10:40:35.843Z,12.85
2022-09-25T10:45:40.715Z,15.15
2022-09-25T10:50:42.996Z,15.55
2022-09-25T10:55:51.424Z,14.07
2022-09-25T11:00:55.826Z,14.13
2022-09-25T11:06:03.894Z,20.60
2022-09-25T11:11:09.292Z,18.08
2022-09-25T11:16:11.015Z,15.05
2022-09-25T11:21:26.005Z,17.20
2022-09-25T11:26:40.603Z,16.92
2022-09-25T11:32:04.839Z,21.33
2022-09-25T11:37:34.052Z,23.63
2022-09-25T11:42:49.247Z,16.80
2022-09-25T11:47:57.704Z,15.38
2022-09-25T11:53:18.484Z,18.48
2022-09-25T11:58:49.469Z,16.60
2022-09-25T12:04:08.579Z,15.00
2022-09-25T12:09:38.467Z,16.00
2022-09-25T12:20:20.304Z,17.50
2022-09-25T12:25:24.841Z,17.17
2022-09-25T12:30:36.933Z,19.13
2022-09-25T12:35:57.168Z,20.13
2022-09-25T12:41:13.151Z,16.90
2022-09-25T12:46:39.473Z,19.20
2022-09-25T12:51:50.782Z,19.17
2022-09-25T12:57:15.131Z,19.75
2022-09-25T13:02:28.124Z,21.58
2022-09-25T13:08:09.153Z,23.42
2022-09-25T13:13:19.333Z,20.08
2022-09-25T13:18:23.796Z,18.23
2022-09-25T13:23:30.481Z,21.33
2022-09-25T13:28:39.163Z,22.65
2022-09-25T13:33:54.447Z,20.25
2022-09-25T13:39:35.868Z,20.45
2022-09-25T13:44:43.543Z,16.83
2022-09-25T13:50:04.559Z,15.07
2022-09-25T13:55:22.091Z,15.27
2022-09-25T14:00:26.936Z,14.88
2022-09-25T14:05:37.725Z,13.48
2022-09-25T14:10:49.147Z,11.05
2022-09-25T14:15:54.823Z,9.38
2022-09-25T14:21:00.305Z,9.70
2022-09-25T14:26:07.215Z,9.73
2022-09-25T14:31:14.839Z,10.27
2022-09-25T14:36:54.788Z,11.02
2022-09-25T14:47:12.669Z,7.90
2022-09-25T14:52:24.105Z,8.48
2022-09-25T14:57:36.297Z,8.38
2022-09-25T15:02:40.855Z,9.85
2022-09-25T15:07:44.319Z,8.50
2022-09-25T15:12:46.000Z,8.38
2022-09-25T15:17:49.543Z,10.63
2022-09-25T15:23:16.541Z,9.32
2022-09-25T15:28:24.533Z,11.02
2022-09-25T15:33:32.487Z,10.88
2022-09-25T15:38:36.140Z,13.02
2022-09-25T15:43:37.747Z,12.90
2022-09-25T15:48:41.427Z,13.43
2022-09-25T15:53:51.120Z,15.18
2022-09-25T15:59:15.543Z,11.68
2022-09-25T16:04:43.079Z,9.95
2022-09-25T16:09:47.065Z,9.52
2022-09-25T16:14:49.933Z,9.13
2022-09-25T16:20:07.421Z,8.75
2022-09-25T16:25:27.771Z,8.45
2022-09-25T16:30:29.801Z,11.45
2022-09-25T16:35:56.953Z,11.77
2022-09-25T16:41:06.489Z,11.48
2022-09-25T16:46:17.793Z,12.27
2022-09-25T16:51:24.125Z,13.40
2022-09-25T16:56:30.595Z,13.80
2022-09-25T17:01:32.144Z,13.57
2022-09-25T17:06:39.328Z,14.52
2022-09-25T17:11:44.510Z,13.77
2022-09-25T17:16:46.030Z,13.85
2022-09-25T17:21:51.158Z,13.43
2022-09-25T17:26:53.040Z,14.20
2022-09-25T17:31:54.786Z,13.48
2022-09-25T17:36:57.795Z,12.63
2022-09-25T17:41:59.401Z,15.45
2022-09-25T17:47:01.919Z,13.85
2022-09-25T17:52:03.552Z,14.90
2022-09-25T17:57:05.044Z,14.63
2022-09-25T18:02:15.714Z,13.98
2022-09-25T18:07:18.449Z,13.15
2022-09-25T18:12:20.124Z,15.07
2022-09-25T18:17:21.624Z,12.18
2022-09-25T18:22:25.463Z,18.98
2022-09-25T18:27:33.263Z,17.08
2022-09-25T18:32:34.785Z,16.20
2022-09-25T18:37:36.483Z,15.30
2022-09-25T18:42:38.602Z,15.35
2022-09-25T18:47:41.258Z,15.55
2022-09-25T18:52:42.929Z,17.38
2022-09-25T18:57:44.487Z,15.30
2022-09-25T19:02:46.090Z,13.50
2022-09-25T19:07:48.026Z,14.63
2022-09-25T19:12:50.601Z,14.23
2022-09-25T19:17:52.138Z,15.70
2022-09-25T19:22:53.988Z,14.82
2022-09-25T19:27:55.600Z,20.35
2022-09-25T19:32:57.084Z,19.80
2022-09-25T19:37:59.228Z,18.42
2022-09-25T19:43:01.104Z,17.63
2022-09-25T19:48:02.641Z,14.00
2022-09-25T19:53:04.156Z,16.75
2022-09-25T19:58:05.644Z,18.38
2022-09-25T20:03:07.673Z,16.20
2022-09-25T20:08:09.360Z,16.67
2022-09-25T20:13:11.473Z,15.25
2022-09-25T20:18:13.225Z,15.00
2022-09-25T20:23:14.727Z,16.65
2022-09-25T20:28:16.271Z,15.90
2022-09-25T20:33:17.789Z,20.55
2022-09-25T20:38:19.357Z,15.95
2022-09-25T20:43:21.586Z,12.82
2022-09-25T20:48:23.266Z,13.75
2022-09-25T20:53:25.244Z,12.90
2022-09-25T20:58:26.730Z,15.15
2022-09-25T21:03:34.672Z,11.73
2022-09-25T21:08:36.307Z,14.88
2022-09-25T21:13:41.131Z,12.55
2022-09-25T21:18:42.701Z,10.75
2022-09-25T21:23:50.305Z,12.45
2022-09-25T21:28:53.972Z,11.50
2022-09-25T21:33:56.991Z,12.13
2022-09-25T21:38:59.946Z,10.32
2022-09-25T21:44:04.871Z,10.85
2022-09-25T21:49:07.529Z,10.60
2022-09-25T21:54:10.260Z,12.98
2022-09-25T21:59:12.697Z,13.32
2022-09-25T22:04:15.358Z,14.30
2022-09-25T22:09:20.454Z,12.02
2022-09-25T22:14:22.374Z,11.90
2022-09-25T22:19:26.966Z,13.00
2022-09-25T22:24:28.525Z,11.82
2022-09-25T22:29:30.224Z,10.25
2022-09-25T22:34:31.756Z,15.65
2022-09-25T22:39:33.265Z,15.57
2022-09-25T22:44:34.731Z,12.82
2022-09-25T22:49:36.222Z,14.73
2022-09-25T22:54:37.719Z,12.05
2022-09-25T22:59:39.266Z,11.50
2022-09-25T23:04:41.871Z,10.50
2022-09-25T23:09:43.444Z,13.05
2022-09-25T23:14:45.043Z,12.70
2022-09-25T23:19:46.778Z,13.13
2022-09-25T23:24:48.355Z,12.02
2022-09-25T23:29:49.840Z,13.45
2022-09-25T23:34:51.343Z,13.70
2022-09-25T23:39:52.875Z,10.23
2022-09-25T23:44:54.508Z,14.95
2022-09-25T23:49:58.598Z,16.80
2022-09-25T23:55:05.104Z,16.83
